Time;durP1;ratioP1;P1;durP2;ratioP2;P2;SDS_P1;SDS_P2;PMS_P1;PMS_P2;Temp;Humidity;BMP_temperature;BMP_pressure;BME280_temperature;BME280_humidity;BME280_pressure;Samples;Min_cycle;Max_cycle;Signal;HPM_P1;HPM_P2
2023/10/20 00:01:18;;;;;;;6.05;5.53;;;;;;;15.99;100.00;97383.69;10346500;28;20474;-58
2023/10/20 00:06:20;;;;;;;6.07;5.53;;;;;;;16.01;100.00;97380.78;10347008;28;20080;-58
2023/10/20 00:11:25;;;;;;;6.25;5.00;;;;;;;16.02;100.00;97377.06;10348966;28;20050;-58
2023/10/20 00:16:28;;;;;;;5.80;5.22;;;;;;;16.00;100.00;97376.47;10347862;28;20457;-58
2023/10/20 00:21:30;;;;;;;5.67;5.00;;;;;;;15.96;100.00;97369.91;10343835;28;20547;-58
2023/10/20 00:26:32;;;;;;;5.00;4.50;;;;;;;15.87;100.00;97364.06;10349129;28;20064;-58
2023/10/20 00:31:33;;;;;;;5.75;4.90;;;;;;;15.95;100.00;97369.09;10351126;28;20057;-58
2023/10/20 00:36:35;;;;;;;5.25;4.78;;;;;;;15.90;100.00;97344.84;10354829;28;21113;-58
2023/10/20 00:41:36;;;;;;;5.18;4.28;;;;;;;15.93;100.00;97322.06;10346905;28;20133;-59
2023/10/20 00:46:38;;;;;;;4.57;4.18;;;;;;;15.89;100.00;97314.50;10344855;28;20053;-58
2023/10/20 00:51:40;;;;;;;4.45;3.60;;;;;;;15.90;100.00;97304.59;10351206;28;20053;-58
2023/10/20 00:56:42;;;;;;;4.80;4.32;;;;;;;15.95;100.00;97306.59;10349407;28;20048;-57
2023/10/20 01:01:44;;;;;;;5.07;4.55;;;;;;;15.84;100.00;97290.25;10351107;28;20944;-57
2023/10/20 01:06:48;;;;;;;5.10;4.60;;;;;;;15.89;100.00;97293.03;10340495;28;20698;-58
2023/10/20 01:11:49;;;;;;;5.07;4.63;;;;;;;15.91;100.00;97287.44;10343465;28;20065;-58
2023/10/20 01:16:51;;;;;;;6.15;4.80;;;;;;;15.90;100.00;97288.50;10345492;28;20041;-58
2023/10/20 01:21:52;;;;;;;4.85;4.45;;;;;;;15.90;100.00;97278.59;10343980;28;20064;-59
2023/10/20 01:26:54;;;;;;;5.55;5.05;;;;;;;15.90;100.00;97286.63;10339423;28;20144;-58
2023/10/20 01:31:55;;;;;;;5.45;4.90;;;;;;;15.90;100.00;97277.78;10342560;28;20649;-58
2023/10/20 01:36:57;;;;;;;5.10;4.60;;;;;;;15.85;100.00;97265.06;10344106;28;20139;-59
2023/10/20 01:41:58;;;;;;;5.45;4.95;;;;;;;15.92;100.00;97253.41;10349661;28;20046;-59
2023/10/20 01:47:00;;;;;;;6.53;5.93;;;;;;;15.86;100.00;97234.50;10338774;28;20046;-59
2023/10/20 01:52:02;;;;;;;6.43;5.82;;;;;;;15.86;100.00;97233.69;10345650;28;20434;-61
2023/10/20 01:57:04;;;;;;;5.43;5.00;;;;;;;15.83;100.00;97213.50;10341813;28;20080;-58
2023/10/20 02:02:05;;;;;;;6.38;5.80;;;;;;;15.88;100.00;97219.00;10346492;28;20050;-58
2023/10/20 02:07:07;;;;;;;5.22;4.72;;;;;;;15.92;100.00;97202.44;10347740;28;20060;-59
2023/10/20 02:12:10;;;;;;;5.88;5.38;;;;;;;15.88;100.00;97205.59;10343838;28;20054;-60
2023/10/20 02:17:11;;;;;;;6.28;5.68;;;;;;;15.85;100.00;97189.97;10345700;28;20238;-58
2023/10/20 02:22:13;;;;;;;5.65;5.15;;;;;;;15.84;100.00;97161.50;10346171;28;20524;-59
2023/10/20 02:27:14;;;;;;;5.80;5.30;;;;;;;15.76;100.00;97140.34;10342629;28;20045;-58
2023/10/20 02:32:16;;;;;;;5.82;5.07;;;;;;;15.77;100.00;97131.25;10348659;28;20077;-59
2023/10/20 02:37:17;;;;;;;5.43;4.93;;;;;;;15.77;100.00;97123.22;10346258;28;20836;-58
2023/10/20 02:42:19;;;;;;;6.25;5.50;;;;;;;15.81;100.00;97113.69;10346902;28;20531;-58
2023/10/20 02:47:20;;;;;;;5.68;5.05;;;;;;;15.80;100.00;97109.38;10343783;28;20054;-59
2023/10/20 02:52:23;;;;;;;6.07;5.57;;;;;;;15.77;100.00;97115.19;10346873;28;20091;-59
2023/10/20 02:57:24;;;;;;;5.90;5.40;;;;;;;15.79;100.00;97105.06;10358260;28;20079;-58
2023/10/20 03:02:27;;;;;;;6.20;5.70;;;;;;;15.77;100.00;97093.72;10353369;28;20198;-59
2023/10/20 03:07:29;;;;;;;7.50;6.85;;;;;;;15.78;100.00;97089.19;10352882;28;20133;-59
2023/10/20 03:12:31;;;;;;;7.35;6.65;;;;;;;15.65;100.00;97044.66;10349023;28;20061;-59
2023/10/20 03:17:32;;;;;;;7.63;6.93;;;;;;;15.70;100.00;97037.56;10346746;28;20052;-59
2023/10/20 03:22:35;;;;;;;8.35;7.63;;;;;;;15.68;100.00;97028.09;10318123;28;20053;-59
2023/10/20 03:27:37;;;;;;;8.15;7.45;;;;;;;15.70;100.00;97028.66;10352211;28;20053;-58
2023/10/20 03:32:39;;;;;;;9.35;8.45;;;;;;;15.73;100.00;97038.91;10357831;28;20644;-58
2023/10/20 03:37:41;;;;;;;9.57;8.63;;;;;;;15.65;100.00;97023.22;10351405;28;20056;-57
2023/10/20 03:42:43;;;;;;;9.95;9.05;;;;;;;15.71;100.00;97024.94;10351493;28;20045;-58
2023/10/20 03:47:44;;;;;;;10.15;9.27;;;;;;;15.64;100.00;97005.47;10346820;28;20133;-58
2023/10/20 03:52:47;;;;;;;9.48;8.68;;;;;;;15.67;100.00;96988.94;10351247;28;20046;-58
2023/10/20 03:57:49;;;;;;;10.60;9.60;;;;;;;15.58;100.00;96975.06;10351384;28;20054;-59
2023/10/20 04:02:51;;;;;;;10.30;9.43;;;;;;;15.61;100.00;96965.75;10349642;28;20161;-59
2023/10/20 04:07:53;;;;;;;10.98;9.95;;;;;;;15.62;100.00;96957.47;10345035;28;20540;-58
2023/10/20 04:12:55;;;;;;;10.05;9.18;;;;;;;15.59;100.00;96957.13;10350126;28;20138;-60
2023/10/20 04:17:56;;;;;;;10.57;9.60;;;;;;;15.61;100.00;96941.63;10345068;28;20578;-57
2023/10/20 04:22:58;;;;;;;10.98;9.95;;;;;;;15.60;100.00;96908.66;10348371;28;20757;-58
2023/10/20 04:49:38;;;;;;;10.48;9.48;;;;;;;15.51;100.00;96843.88;10349034;28;20354;-59
2023/10/20 04:54:45;;;;;;;10.07;9.07;;;;;;;15.52;100.00;96837.47;10345334;28;20581;-60
2023/10/20 04:59:51;;;;;;;10.57;9.57;;;;;;;15.48;100.00;96814.88;10344107;28;20060;-58
2023/10/20 05:04:52;;;;;;;10.88;9.70;;;;;;;15.40;100.00;96793.78;10329309;28;20139;-58
2023/10/20 05:09:54;;;;;;;13.00;9.35;;;;;;;15.46;100.00;96806.25;10336969;28;20091;-59
2023/10/20 05:14:56;;;;;;;10.07;9.18;;;;;;;15.39;100.00;96802.91;10342643;28;20342;-59
2023/10/20 05:19:57;;;;;;;10.70;9.70;;;;;;;15.41;100.00;96795.44;10336296;28;20045;-58
2023/10/20 05:24:59;;;;;;;10.07;9.18;;;;;;;15.41;100.00;96776.66;10340650;28;20057;-59
2023/10/20 05:30:00;;;;;;;8.88;8.13;;;;;;;15.44;100.00;96768.16;10346494;28;20180;-59
2023/10/20 05:35:03;;;;;;;10.35;8.90;;;;;;;15.36;100.00;96741.75;10340579;28;20049;-59
2023/10/20 05:40:06;;;;;;;9.77;8.90;;;;;;;15.44;100.00;96743.22;10336274;28;20128;-59
2023/10/20 05:45:17;;;;;;;9.65;8.65;;;;;;;15.36;100.00;96741.75;10343380;28;20054;-59
2023/10/20 05:50:18;;;;;;;8.90;8.10;;;;;;;15.38;100.00;96721.69;10339943;28;20061;-58
2023/10/20 05:55:20;;;;;;;9.57;8.68;;;;;;;15.34;100.00;96700.97;10332390;28;20123;-58
2023/10/20 06:00:22;;;;;;;8.57;7.88;;;;;;;15.32;100.00;96690.50;10339007;28;20076;-59
2023/10/20 06:05:24;;;;;;;8.05;7.30;;;;;;;15.24;100.00;96653.38;10338687;28;20037;-59
2023/10/20 06:10:25;;;;;;;8.48;7.78;;;;;;;15.28;100.00;96675.13;10340449;28;20053;-59
2023/10/20 06:15:27;;;;;;;9.23;8.30;;;;;;;15.23;100.00;96699.16;10343685;28;20404;-59
2023/10/20 06:20:29;;;;;;;8.93;8.13;;;;;;;15.18;100.00;96707.94;10330955;28;20465;-58
2023/10/20 06:25:35;;;;;;;8.93;8.07;;;;;;;15.16;100.00;96694.78;10338487;28;20053;-59
2023/10/20 06:30:43;;;;;;;9.43;8.43;;;;;;;15.19;100.00;96682.75;10345027;28;21739;-59
2023/10/20 06:35:52;;;;;;;9.50;8.60;;;;;;;15.14;100.00;96691.50;10337460;28;20053;-58
2023/10/20 06:40:54;;;;;;;10.48;9.57;;;;;;;15.13;100.00;96671.16;10343391;28;20046;-59
2023/10/20 06:45:57;;;;;;;10.77;9.70;;;;;;;15.11;100.00;96661.72;10350713;28;20686;-58
2023/10/20 06:50:58;;;;;;;10.63;9.67;;;;;;;15.06;100.00;96635.66;10347442;28;20124;-60
2023/10/20 06:56:05;;;;;;;11.88;10.68;;;;;;;15.08;100.00;96609.44;10343196;28;20868;-58
2023/10/20 07:01:18;;;;;;;9.98;8.82;;;;;;;15.10;100.00;96582.41;10342474;28;20521;-58
2023/10/20 07:06:20;;;;;;;9.77;8.95;;;;;;;15.00;100.00;96551.72;10347993;28;20060;-58
2023/10/20 07:11:24;;;;;;;10.20;9.18;;;;;;;15.09;100.00;96537.94;10348288;28;20124;-58
2023/10/20 07:16:25;;;;;;;11.23;10.18;;;;;;;15.10;100.00;96551.09;10346364;28;20057;-58
2023/10/20 07:21:27;;;;;;;9.68;8.77;;;;;;;15.10;100.00;96539.56;10347612;28;20052;-57
2023/10/20 07:26:29;;;;;;;8.63;7.93;;;;;;;15.09;100.00;96535.28;10341095;28;20064;-58
2023/10/20 07:31:32;;;;;;;9.45;8.55;;;;;;;15.10;100.00;96534.19;10341143;28;20502;-56
2023/10/20 07:36:34;;;;;;;9.67;8.67;;;;;;;15.05;100.00;96520.75;10339210;28;20263;-56
2023/10/20 07:41:36;;;;;;;10.02;9.02;;;;;;;15.05;100.00;96526.09;10336988;28;20732;-57
2023/10/20 07:46:38;;;;;;;8.57;7.75;;;;;;;15.12;100.00;96543.63;10342424;28;20681;-57
2023/10/20 07:51:40;;;;;;;9.73;8.82;;;;;;;15.11;100.00;96542.00;10346896;28;20181;-57
2023/10/20 07:56:41;;;;;;;11.30;9.55;;;;;;;15.06;100.00;96528.53;10337448;28;20555;-58
2023/10/20 08:01:43;;;;;;;10.15;9.15;;;;;;;15.14;100.00;96536.16;10334562;28;20146;-57
2023/10/20 08:06:47;;;;;;;8.80;7.90;;;;;;;15.13;100.00;96539.91;10339190;28;20053;-58
2023/10/20 08:11:50;;;;;;;9.85;9.00;;;;;;;15.18;100.00;96521.22;10342350;28;20748;-58
2023/10/20 08:16:52;;;;;;;11.02;9.80;;;;;;;15.19;100.00;96511.31;10345507;28;20554;-58
2023/10/20 08:21:54;;;;;;;9.90;9.00;;;;;;;15.15;100.00;96496.81;10338119;28;20057;-58
2023/10/20 08:26:56;;;;;;;8.75;7.95;;;;;;;15.19;100.00;96511.31;10343967;28;20082;-58
2023/10/20 08:31:59;;;;;;;9.82;8.93;;;;;;;15.19;100.00;96509.47;10344568;28;20542;-59
2023/10/20 08:37:02;;;;;;;9.38;8.57;;;;;;;15.17;100.00;96516.91;10340723;28;20060;-59
2023/10/20 08:42:15;;;;;;;8.93;8.13;;;;;;;15.20;100.00;96523.66;10341899;28;20045;-58
2023/10/20 08:47:17;;;;;;;9.23;8.32;;;;;;;15.24;100.00;96529.31;10339557;28;20051;-58
2023/10/20 08:52:19;;;;;;;8.95;8.02;;;;;;;15.35;100.00;96547.19;10344856;28;20053;-57
2023/10/20 08:57:20;;;;;;;8.85;7.85;;;;;;;15.24;100.00;96534.69;10336289;28;20100;-57
2023/10/20 09:02:22;;;;;;;8.98;8.02;;;;;;;15.24;100.00;96548.06;10344032;28;20414;-57
2023/10/20 09:07:23;;;;;;;10.10;9.10;;;;;;;15.29;100.00;96546.28;10341827;28;20054;-56
2023/10/20 09:12:27;;;;;;;10.55;9.48;;;;;;;15.36;100.00;96562.22;10344625;28;20170;-57
2023/10/20 09:17:33;;;;;;;9.38;8.48;;;;;;;15.40;100.00;96560.66;10341207;28;20060;-58
2023/10/20 09:22:36;;;;;;;9.18;8.35;;;;;;;15.55;100.00;96560.06;10337086;28;20050;-57
2023/10/20 09:27:38;;;;;;;9.80;8.90;;;;;;;15.61;100.00;96560.97;10338666;28;20057;-58
2023/10/20 09:32:41;;;;;;;9.82;8.93;;;;;;;15.63;100.00;96561.56;10340168;28;20053;-55
2023/10/20 09:37:43;;;;;;;7.65;6.97;;;;;;;15.66;100.00;96574.47;10338728;28;20155;-56
2023/10/20 09:43:28;;;;;;;9.20;7.97;;;;;;;15.63;100.00;96564.22;10340298;28;20176;-59
2023/10/20 09:48:32;;;;;;;9.68;8.77;;;;;;;15.69;100.00;96566.72;10297165;28;20106;-56
2023/10/20 09:53:34;;;;;;;9.40;8.50;;;;;;;15.77;100.00;96560.13;10332067;28;20049;-59
2023/10/20 09:58:41;;;;;;;8.82;8.02;;;;;;;15.83;100.00;96567.22;10338923;28;20059;-58
2023/10/20 10:03:57;;;;;;;8.90;7.72;;;;;;;15.92;100.00;96572.97;10342879;28;20124;-58
2023/10/20 10:08:59;;;;;;;9.20;8.30;;;;;;;15.97;100.00;96645.44;10351346;28;20056;-60
2023/10/20 10:14:02;;;;;;;9.20;8.40;;;;;;;16.06;100.00;96638.63;10346804;28;20068;-57
2023/10/20 10:19:09;;;;;;;8.93;7.90;;;;;;;16.08;100.00;96662.50;10351862;28;20061;-60
2023/10/20 10:24:16;;;;;;;10.75;9.68;;;;;;;16.07;100.00;96676.97;10344543;28;20474;-57
2023/10/20 10:30:00;;;;;;;10.82;9.82;;;;;;;16.01;100.00;96667.22;10342398;28;20121;-60
2023/10/20 10:35:06;;;;;;;11.27;10.18;;;;;;;15.98;100.00;96665.03;10343974;28;20057;-58
2023/10/20 10:40:14;;;;;;;9.80;8.80;;;;;;;15.97;100.00;96644.63;10344986;28;20462;-58
2023/10/20 10:45:24;;;;;;;9.90;8.82;;;;;;;16.09;100.00;96629.25;10347557;28;20770;-58
2023/10/20 10:50:26;;;;;;;9.35;8.55;;;;;;;16.25;100.00;96614.97;10340243;28;20056;-57
2023/10/20 10:55:28;;;;;;;8.75;7.85;;;;;;;16.28;100.00;96619.03;10350056;28;20467;-57
2023/10/20 11:00:30;;;;;;;9.25;8.32;;;;;;;16.36;100.00;96610.56;10352758;28;20061;-57
2023/10/20 11:05:33;;;;;;;11.50;8.90;;;;;;;16.32;100.00;96614.81;10353274;28;20145;-57
2023/10/20 11:10:37;;;;;;;11.38;9.88;;;;;;;16.35;100.00;96616.16;10353365;28;20141;-56
2023/10/20 11:15:40;;;;;;;14.85;9.80;;;;;;;16.41;100.00;96631.28;10352723;28;20468;-57
2023/10/20 11:20:42;;;;;;;13.23;10.80;;;;;;;16.43;100.00;96632.63;10353112;28;20048;-56
2023/10/20 11:25:45;;;;;;;9.85;8.80;;;;;;;16.51;100.00;96615.28;10344680;28;20132;-57
2023/10/20 11:30:46;;;;;;;9.60;8.80;;;;;;;16.51;100.00;96617.97;10351112;28;20128;-56
2023/10/20 11:35:49;;;;;;;11.48;9.10;;;;;;;16.57;99.83;96627.72;10351646;28;20058;-57
2023/10/20 11:40:51;;;;;;;8.45;7.75;;;;;;;16.54;99.41;96606.75;10349038;28;20606;-58
2023/10/20 11:45:53;;;;;;;9.20;8.25;;;;;;;16.53;99.37;96589.00;10344524;28;20061;-58
2023/10/20 11:50:54;;;;;;;8.77;8.00;;;;;;;16.55;99.60;96602.19;10349282;28;20715;-56
2023/10/20 11:55:56;;;;;;;9.82;8.73;;;;;;;16.48;100.00;96605.03;10351956;28;20057;-55
2023/10/20 12:00:57;;;;;;;10.32;9.30;;;;;;;16.42;100.00;96616.78;10346377;28;20150;-57
2023/10/20 12:05:59;;;;;;;9.23;8.35;;;;;;;16.51;100.00;96623.34;10353902;28;20045;-56
2023/10/20 12:11:01;;;;;;;9.98;8.98;;;;;;;16.56;100.00;96610.00;10344358;28;20045;-56
2023/10/20 12:16:08;;;;;;;9.18;8.27;;;;;;;16.61;100.00;96601.97;10349021;28;21654;-56
2023/10/20 12:21:09;;;;;;;9.45;8.65;;;;;;;16.60;100.00;96611.13;10350641;28;20065;-55
2023/10/20 12:26:14;;;;;;;9.02;8.32;;;;;;;16.54;100.00;96622.84;10346874;28;20506;-57
2023/10/20 12:31:17;;;;;;;9.30;8.40;;;;;;;16.50;100.00;96643.22;10347584;28;20816;-57
2023/10/20 12:36:19;;;;;;;9.10;8.30;;;;;;;16.43;100.00;96634.53;10352370;28;20073;-58
2023/10/20 12:41:20;;;;;;;9.55;8.65;;;;;;;16.40;100.00;96659.19;10350572;28;20177;-56
2023/10/20 12:46:22;;;;;;;9.45;8.65;;;;;;;16.34;100.00;96646.75;10346910;28;21080;-58
2023/10/20 12:51:24;;;;;;;11.55;10.32;;;;;;;16.33;100.00;96653.16;10349765;28;20069;-58
2023/10/20 12:56:26;;;;;;;10.80;9.70;;;;;;;16.36;100.00;96658.03;10348589;28;20057;-58
2023/10/20 13:01:28;;;;;;;9.05;8.13;;;;;;;16.36;100.00;96668.78;10352471;28;20057;-56
2023/10/20 13:06:29;;;;;;;9.88;8.80;;;;;;;16.38;100.00;96662.13;10348738;28;20708;-56
2023/10/20 13:11:35;;;;;;;10.82;8.38;;;;;;;16.42;100.00;96641.78;10350925;28;20148;-58
2023/10/20 13:16:39;;;;;;;10.75;9.73;;;;;;;16.50;100.00;96653.94;10349779;28;20064;-56
2023/10/20 13:21:40;;;;;;;10.20;9.15;;;;;;;16.54;100.00;96676.56;10348375;28;20188;-57
2023/10/20 13:26:42;;;;;;;10.10;8.85;;;;;;;16.51;100.00;96671.66;10343095;28;20492;-59
2023/10/20 13:31:43;;;;;;;12.35;9.43;;;;;;;16.56;100.00;96698.59;10343604;28;20065;-60
2023/10/20 13:36:45;;;;;;;8.93;7.60;;;;;;;16.56;100.00;96684.34;10347167;28;20059;-56
2023/10/20 13:41:46;;;;;;;6.93;6.28;;;;;;;16.62;100.00;96672.63;10346814;28;20832;-60
2023/10/20 13:46:50;;;;;;;6.18;5.63;;;;;;;16.94;100.00;96707.66;10344179;28;20049;-59
2023/10/20 13:51:52;;;;;;;5.20;4.70;;;;;;;16.93;100.00;96695.31;10349534;28;20729;-58
2023/10/20 13:56:53;;;;;;;6.30;4.03;;;;;;;16.86;100.00;96689.28;10342906;28;20052;-58
2023/10/20 14:01:55;;;;;;;4.10;3.25;;;;;;;16.94;100.00;96686.16;10346543;28;20059;-58
2023/10/20 14:06:57;;;;;;;2.38;2.17;;;;;;;16.98;100.00;96659.63;10349736;28;20383;-57
2023/10/20 14:11:58;;;;;;;2.90;1.85;;;;;;;17.11;100.00;96678.03;10348650;28;20141;-58
2023/10/20 14:17:06;;;;;;;3.65;2.45;;;;;;;16.83;100.00;96667.47;10350505;28;20057;-57
2023/10/20 14:22:07;;;;;;;1.88;1.70;;;;;;;16.96;100.00;96705.53;10348704;28;20092;-57
2023/10/20 14:27:09;;;;;;;2.33;2.05;;;;;;;16.89;100.00;96729.09;10344265;28;20494;-57
2023/10/20 14:32:11;;;;;;;2.10;0.73;;;;;;;16.80;100.00;96746.69;10341965;28;20123;-58
2023/10/20 14:37:12;;;;;;;0.98;0.88;;;;;;;16.90;100.00;96768.34;10336206;28;20068;-58
2023/10/20 14:42:14;;;;;;;1.20;0.90;;;;;;;16.83;100.00;96769.53;10336461;28;20132;-57
2023/10/20 14:47:16;;;;;;;3.17;0.70;;;;;;;16.89;100.00;96801.63;10334429;28;20061;-57
2023/10/20 14:52:19;;;;;;;1.70;0.50;;;;;;;16.81;100.00;96830.75;10339109;28;20061;-57
2023/10/20 14:57:20;;;;;;;0.65;0.30;;;;;;;16.73;100.00;96823.94;10345470;28;20111;-57
2023/10/20 15:02:22;;;;;;;0.70;0.20;;;;;;;16.58;98.99;96829.88;10341351;28;20697;-57
2023/10/20 15:07:23;;;;;;;2.92;0.50;;;;;;;16.55;99.70;96831.19;10343659;28;20139;-56
2023/10/20 15:12:26;;;;;;;0.40;0.20;;;;;;;16.55;95.58;96841.91;10342685;28;20045;-57
2023/10/20 15:17:27;;;;;;;1.25;0.30;;;;;;;16.52;95.42;96853.16;10343491;28;20065;-59
2023/10/20 15:22:29;;;;;;;0.70;0.20;;;;;;;16.41;94.59;96864.81;10339954;28;20057;-57
2023/10/20 15:27:31;;;;;;;0.45;0.20;;;;;;;16.43;94.74;96863.47;10336687;28;20056;-58
2023/10/20 15:32:33;;;;;;;0.22;0.20;;;;;;;16.37;92.93;96869.03;10335656;28;20057;-57
2023/10/20 15:37:38;;;;;;;0.65;0.15;;;;;;;16.29;93.23;96862.19;10342585;28;20131;-57
2023/10/20 15:42:40;;;;;;;0.75;0.28;;;;;;;16.33;93.47;96892.03;10339685;28;20524;-58
2023/10/20 15:47:43;;;;;;;0.60;0.52;;;;;;;16.31;94.37;96907.56;10338646;28;20057;-57
2023/10/20 15:52:45;;;;;;;1.07;0.20;;;;;;;16.23;94.04;96911.47;10343161;28;20050;-58
2023/10/20 15:57:46;;;;;;;0.40;0.20;;;;;;;16.31;93.08;96942.47;10341120;28;20390;-58
2023/10/20 16:02:49;;;;;;;0.90;0.20;;;;;;;16.31;94.03;96969.28;10340768;28;20053;-58
2023/10/20 16:07:51;;;;;;;0.43;0.22;;;;;;;16.30;93.92;96970.34;10336462;28;20110;-57
2023/10/20 16:12:52;;;;;;;0.57;0.20;;;;;;;16.23;92.85;96981.22;10341601;28;20064;-56
2023/10/20 16:17:56;;;;;;;0.35;0.10;;;;;;;16.14;92.22;96983.47;10341871;28;20073;-57
2023/10/20 16:22:57;;;;;;;0.52;0.10;;;;;;;16.07;91.99;97002.38;10337535;28;20613;-57
2023/10/20 16:27:59;;;;;;;1.23;0.17;;;;;;;16.06;91.81;97002.63;10332564;28;20064;-57
2023/10/20 16:33:01;;;;;;;0.82;0.40;;;;;;;15.98;91.22;97000.31;10337331;28;21122;-56
2023/10/20 16:38:02;;;;;;;0.55;0.30;;;;;;;15.92;91.63;97003.97;10338733;28;20123;-58
2023/10/20 16:43:07;;;;;;;0.93;0.30;;;;;;;15.97;91.22;97020.16;10338175;28;20053;-57
2023/10/20 16:48:09;;;;;;;0.55;0.30;;;;;;;15.89;90.45;97030.19;10335228;28;20129;-57
2023/10/20 16:53:11;;;;;;;0.73;0.25;;;;;;;15.95;90.48;97041.03;10337699;28;20065;-58
2023/10/20 16:58:12;;;;;;;1.13;0.32;;;;;;;15.84;89.46;97019.38;10337934;28;20049;-57
2023/10/20 17:03:14;;;;;;;1.23;0.50;;;;;;;15.87;90.13;97036.84;10336486;28;20064;-57
2023/10/20 17:08:16;;;;;;;1.13;0.43;;;;;;;15.69;89.13;97019.03;10337311;28;20056;-57
2023/10/20 17:13:17;;;;;;;1.98;0.77;;;;;;;15.78;90.18;97060.53;10335610;28;20057;-57
2023/10/20 17:18:19;;;;;;;1.85;0.85;;;;;;;15.87;90.66;97080.56;10336269;28;20140;-58
2023/10/20 17:23:21;;;;;;;1.55;0.47;;;;;;;15.88;91.17;97090.25;10337930;28;20057;-57
2023/10/20 17:28:22;;;;;;;1.92;0.57;;;;;;;15.86;91.81;97078.13;10335885;28;20413;-57
2023/10/20 17:33:27;;;;;;;3.90;0.88;;;;;;;15.77;92.33;97077.63;10340466;28;20049;-57
2023/10/20 17:38:29;;;;;;;2.25;0.73;;;;;;;15.73;92.87;97087.19;10333412;28;20065;-57
2023/10/20 17:43:31;;;;;;;2.88;0.50;;;;;;;15.69;93.00;97088.72;10339797;28;20060;-56
2023/10/20 17:48:33;;;;;;;1.65;0.77;;;;;;;15.71;93.29;97098.16;10335665;28;20965;-56
2023/10/20 17:53:35;;;;;;;1.73;0.65;;;;;;;15.68;93.49;97079.84;10336455;28;20170;-57
2023/10/20 17:58:37;;;;;;;1.13;0.63;;;;;;;15.66;93.91;97102.59;10340547;28;20052;-57
2023/10/20 18:03:40;;;;;;;3.75;1.48;;;;;;;15.66;93.89;97105.28;10338297;28;20189;-57
2023/10/20 18:08:43;;;;;;;2.13;1.45;;;;;;;15.59;94.58;97099.22;10336544;28;20057;-55
2023/10/20 18:13:44;;;;;;;3.38;1.98;;;;;;;15.72;94.78;97115.06;10339422;28;20120;-53
2023/10/20 18:18:48;;;;;;;2.50;1.00;;;;;;;15.74;94.90;97110.28;10344979;28;20961;-59
2023/10/20 18:23:57;;;;;;;;;;;;;;;15.71;94.02;97121.47;10334487;28;20182;-58
2023/10/20 18:28:59;;;;;;;2.45;1.38;;;;;;;15.66;94.51;97132.09;10341673;28;19947;-59
2023/10/20 18:34:02;;;;;;;1.35;0.75;;;;;;;15.64;94.98;97129.66;10346739;28;20843;-59
2023/10/20 18:39:04;;;;;;;2.05;0.95;;;;;;;15.66;95.09;97132.09;10342126;28;20049;-58
2023/10/20 18:44:05;;;;;;;1.73;1.30;;;;;;;15.61;95.21;97123.91;10346338;28;20573;-59
2023/10/20 18:49:08;;;;;;;1.60;0.90;;;;;;;15.55;95.32;97131.84;10347728;28;20076;-58
2023/10/20 18:54:09;;;;;;;1.02;0.65;;;;;;;15.52;95.14;97142.19;10346612;28;20478;-59
2023/10/20 18:59:11;;;;;;;3.45;1.02;;;;;;;15.40;95.61;97127.97;10343718;28;20271;-58
2023/10/20 19:04:13;;;;;;;1.63;1.10;;;;;;;15.46;95.60;97148.50;10348413;28;20450;-58
2023/10/20 19:09:15;;;;;;;1.55;1.15;;;;;;;15.39;95.55;97143.25;10343136;28;20091;-55
2023/10/20 19:14:17;;;;;;;3.70;1.20;;;;;;;15.39;95.59;97148.59;10342866;28;20063;-57
2023/10/20 19:19:18;;;;;;;1.60;0.90;;;;;;;15.27;96.32;97145.09;10343281;28;20158;-59
2023/10/20 19:24:22;;;;;;;2.30;1.10;;;;;;;15.25;97.13;97147.97;10344465;28;20068;-58
2023/10/20 19:29:23;;;;;;;2.33;1.27;;;;;;;15.25;97.23;97158.69;10345484;28;20058;-58
2023/10/20 19:34:25;;;;;;;2.50;1.27;;;;;;;15.23;96.96;97163.47;10346434;28;20311;-58
2023/10/20 19:39:27;;;;;;;2.58;1.33;;;;;;;15.02;97.50;97143.38;10343161;28;20460;-57
2023/10/20 19:44:28;;;;;;;3.60;2.60;;;;;;;15.19;97.61;97189.09;10342941;28;20521;-59
2023/10/20 19:49:30;;;;;;;4.55;4.25;;;;;;;15.18;97.55;97208.91;10340427;28;20140;-58
2023/10/20 19:54:32;;;;;;;2.50;2.30;;;;;;;15.15;97.68;97202.13;10345110;28;20623;-56
2023/10/20 19:59:33;;;;;;;3.25;2.95;;;;;;;15.16;97.40;97193.06;10341480;28;20083;-57
2023/10/20 20:04:36;;;;;;;2.08;1.77;;;;;;;15.22;97.22;97214.59;10343488;28;20049;-57
2023/10/20 20:09:37;;;;;;;3.60;1.88;;;;;;;15.19;97.02;97218.56;10342969;28;20576;-57
2023/10/20 20:14:38;;;;;;;3.42;1.30;;;;;;;15.12;96.97;97209.81;10341012;28;20211;-57
2023/10/20 20:19:40;;;;;;;1.85;1.20;;;;;;;15.15;97.10;97212.03;10344479;28;20072;-57
2023/10/20 20:24:41;;;;;;;2.20;1.33;;;;;;;15.13;96.87;97220.31;10344354;28;20124;-58
2023/10/20 20:29:43;;;;;;;3.85;1.13;;;;;;;15.10;97.39;97223.44;10349309;28;20136;-57
2023/10/20 20:34:45;;;;;;;3.78;1.13;;;;;;;15.10;97.03;97220.75;10346517;28;20122;-56
2023/10/20 20:39:46;;;;;;;5.57;1.38;;;;;;;15.11;97.07;97210.84;10355148;28;20124;-56
2023/10/20 20:44:48;;;;;;;2.65;1.05;;;;;;;15.11;97.08;97218.88;10352520;28;20064;-57
2023/10/20 20:49:51;;;;;;;2.70;1.48;;;;;;;15.05;97.12;97220.59;10344374;28;20067;-57
2023/10/20 20:54:52;;;;;;;1.83;1.30;;;;;;;15.08;97.17;97220.16;10346070;28;20057;-56
2023/10/20 20:59:57;;;;;;;2.63;0.90;;;;;;;15.02;96.92;97218.38;10351329;28;20539;-57
2023/10/20 21:04:58;;;;;;;1.23;1.00;;;;;;;15.08;97.22;97228.19;10345662;28;20294;-56
2023/10/20 21:10:00;;;;;;;2.78;2.10;;;;;;;15.09;97.42;97240.53;10343591;28;20117;-56
2023/10/20 21:15:02;;;;;;;2.40;1.48;;;;;;;15.10;97.62;97242.19;10342492;28;20045;-57
2023/10/20 21:20:05;;;;;;;2.28;1.80;;;;;;;15.12;97.82;97234.72;10351609;28;20099;-57
2023/10/20 21:25:07;;;;;;;3.38;1.90;;;;;;;15.07;97.74;97215.81;10345394;28;20053;-57
2023/10/20 21:30:10;;;;;;;3.33;2.40;;;;;;;15.02;97.60;97213.00;10345189;28;20054;-57
2023/10/20 21:35:12;;;;;;;3.42;2.20;;;;;;;15.02;97.67;97213.00;10347857;28;20126;-57
2023/10/20 21:40:13;;;;;;;1.77;1.67;;;;;;;15.00;97.42;97215.13;10342304;28;20296;-57
2023/10/20 21:45:15;;;;;;;3.40;1.85;;;;;;;15.00;97.33;97209.75;10339584;28;20498;-58
2023/10/20 21:50:16;;;;;;;1.83;1.55;;;;;;;15.03;97.39;97225.38;10342976;28;20100;-57
2023/10/20 21:55:18;;;;;;;1.70;1.20;;;;;;;15.01;97.58;97233.63;10340544;28;20068;-56
2023/10/20 22:00:25;;;;;;;2.15;1.48;;;;;;;14.96;97.52;97230.81;10353976;28;20166;-55
2023/10/20 22:05:27;;;;;;;2.13;1.45;;;;;;;14.96;97.74;97230.81;10351304;28;20045;-56
2023/10/20 22:10:29;;;;;;;1.48;1.38;;;;;;;14.97;98.18;97231.63;10355849;28;20045;-57
2023/10/20 22:15:30;;;;;;;1.88;1.00;;;;;;;14.98;98.04;97233.25;10348475;28;20565;-56
2023/10/20 22:20:33;;;;;;;1.40;1.00;;;;;;;15.05;98.16;97247.38;10351949;28;20133;-56
2023/10/20 22:25:35;;;;;;;2.38;1.20;;;;;;;15.01;98.26;97259.59;10351534;28;20049;-57
2023/10/20 22:30:36;;;;;;;2.60;0.80;;;;;;;14.96;97.45;97254.09;10349438;28;20120;-56
2023/10/20 22:35:38;;;;;;;0.60;0.60;;;;;;;14.82;97.87;97258.81;10352876;28;20363;-57
2023/10/20 22:40:40;;;;;;;1.20;0.95;;;;;;;14.84;98.60;97260.19;10356808;28;20245;-57
2023/10/20 22:45:41;;;;;;;1.70;0.75;;;;;;;14.82;98.94;97270.31;10349045;28;20196;-57
2023/10/20 22:50:42;;;;;;;2.72;0.60;;;;;;;14.85;99.08;97272.56;10351348;28;20049;-57
2023/10/20 22:55:44;;;;;;;2.13;0.30;;;;;;;14.87;100.00;97263.47;10346202;28;20061;-57
2023/10/20 23:00:46;;;;;;;1.63;0.47;;;;;;;14.97;100.00;97250.38;10347625;28;20227;-57
2023/10/20 23:05:48;;;;;;;1.85;0.35;;;;;;;14.96;100.00;97240.72;10345948;28;20120;-57
2023/10/20 23:10:51;;;;;;;2.28;0.60;;;;;;;15.05;100.00;97242.03;10351814;28;20054;-57
2023/10/20 23:15:52;;;;;;;1.27;0.40;;;;;;;15.06;100.00;97241.00;10346335;28;20502;-57
2023/10/20 23:20:54;;;;;;;2.13;0.47;;;;;;;15.06;99.28;97246.34;10347141;28;20148;-57
2023/10/20 23:25:56;;;;;;;0.70;0.38;;;;;;;15.07;99.68;97242.59;10347377;28;20243;-57
2023/10/20 23:30:57;;;;;;;1.90;0.60;;;;;;;14.96;99.62;97241.50;10346544;28;20125;-57
2023/10/20 23:35:59;;;;;;;2.30;0.80;;;;;;;15.06;99.75;97243.66;10346312;28;20058;-57